Latest Weather Observations for St Kilda Harbour RMYS

IDV60901

Issued at 3:21 pm EDT Wednesday 28 January 2015 (issued every 10 minutes, with the page automatically refreshed every 10 minutes)

About weather observations | Map of Melbourne area stations | Latest observations for Melbourne area | Other Formats
Station Details ID: 086220 Name: ST KILDA HARBOUR - RMYS Lat: -37.86 Lon: 144.96 Height: 6.4 m
Data from the previous 72 hours. | See also: Recent months for locations in Victoria
Date/Time
EDT
Tmp

°C
App
Tmp
°C
Dew
Point
°C
Rel
Hum
%
Delta-T

°C
Wind Press
QNH
hPa
Press
MSL
hPa
Rain
since
9 am
mm
Dir
 
Spd
km/h
Gust
km/h
Spd
kts
Gust
kts
28/03:12pm - - - - - SE 30 48 16 26 - - -
28/03:00pm - - - - - SE 37 52 20 28 - - -
28/02:30pm - - - - - SSE 37 48 20 26 - - -
28/02:03pm - - - - - SE 28 48 15 26 - - -
28/02:00pm - - - - - SSE 30 43 16 23 - - -
28/01:30pm - - - - - SE 33 48 18 26 - - -
28/01:13pm - - - - - SE 30 52 16 28 - - -
28/01:00pm - - - - - ESE 30 44 16 24 - - -
28/12:37pm - - - - - SSE 33 52 18 28 - - -
28/12:30pm - - - - - SE 30 43 16 23 - - -
28/12:00pm - - - - - ESE 35 54 19 29 - - -
28/11:56am - - - - - ESE 33 54 18 29 - - -
28/11:30am - - - - - ESE 30 41 16 22 - - -
28/11:03am - - - - - ESE 32 50 17 27 - - -
28/11:00am - - - - - ESE 35 50 19 27 - - -
28/10:49am - - - - - ESE 30 50 16 27 - - -
28/10:30am - - - - - ESE 26 41 14 22 - - -
28/10:00am - - - - - ESE 28 39 15 21 - - -
28/09:44am - - - - - ESE 28 48 15 26 - - -
28/09:30am - - - - - ESE 28 41 15 22 - - -
28/09:00am - - - - - SE 22 33 12 18 - - -
28/08:30am - - - - - SE 22 30 12 16 - - -
28/08:00am - - - - - SE 19 24 10 13 - - -
28/07:30am - - - - - SE 17 22 9 12 - - -
28/07:00am - - - - - SE 13 20 7 11 - - -
28/06:30am - - - - - SE 11 17 6 9 - - -
28/06:00am - - - - - E 11 17 6 9 - - -
28/05:30am - - - - - E 11 17 6 9 - - -
28/05:00am - - - - - ESE 11 17 6 9 - - -
28/04:30am - - - - - E 11 15 6 8 - - -
28/04:00am - - - - - SE 11 17 6 9 - - -
28/03:30am - - - - - SE 15 19 8 10 - - -
28/03:00am - - - - - ESE 15 22 8 12 - - -
28/02:30am - - - - - SE 17 24 9 13 - - -
28/02:00am - - - - - SE 17 20 9 11 - - -
28/01:30am - - - - - SE 19 22 10 12 - - -
28/01:00am - - - - - SSE 24 30 13 16 - - -
28/12:30am - - - - - SSE 22 30 12 16 - - -
28/12:00am - - - - - SSE 28 33 15 18 - - -
 
Date/Time
EDT
Tmp

°C
App
Tmp
°C
Dew
Point
°C
Rel
Hum
%
Delta-T

°C
Wind Press
QNH
hPa
Press
MSL
hPa
Rain
since
9 am
mm
Dir
 
Spd
km/h
Gust
km/h
Spd
kts
Gust
kts
27/11:30pm - - - - - SSE 32 39 17 21 - - -
27/11:00pm - - - - - SE 28 37 15 20 - - -
27/10:30pm - - - - - SSE 32 43 17 23 - - -
27/10:00pm - - - - - SSE 32 39 17 21 - - -
27/09:30pm - - - - - SSE 33 43 18 23 - - -
27/09:00pm - - - - - SSE 33 39 18 21 - - -
27/08:30pm - - - - - SSE 33 41 18 22 - - -
27/08:00pm - - - - - SSE 35 43 19 23 - - -
27/07:30pm - - - - - S 35 43 19 23 - - -
27/07:00pm - - - - - S 33 39 18 21 - - -
27/06:30pm - - - - - S 35 43 19 23 - - -
27/06:00pm - - - - - SSE 37 46 20 25 - - -
27/05:30pm - - - - - SSE 41 48 22 26 - - -
27/05:00pm - - - - - S 37 44 20 24 - - -
27/04:30pm - - - - - S 33 39 18 21 - - -
27/04:00pm - - - - - SSE 35 43 19 23 - - -
27/03:30pm - - - - - SSE 35 43 19 23 - - -
27/03:00pm - - - - - SSE 33 41 18 22 - - -
27/02:30pm - - - - - S 32 39 17 21 - - -
27/02:00pm - - - - - S 30 35 16 19 - - -
27/01:30pm - - - - - S 32 39 17 21 - - -
27/01:00pm - - - - - SSE 32 41 17 22 - - -
27/12:30pm - - - - - SSE 30 39 16 21 - - -
27/12:00pm - - - - - SSE 32 39 17 21 - - -
27/11:30am - - - - - SSE 30 37 16 20 - - -
27/11:00am - - - - - S 28 33 15 18 - - -
27/10:30am - - - - - SSE 24 32 13 17 - - -
27/10:00am - - - - - SSE 22 30 12 16 - - -
27/09:30am - - - - - SSE 22 28 12 15 - - -
27/09:00am - - - - - SE 17 26 9 14 - - -
27/08:30am - - - - - SE 19 30 10 16 - - -
27/08:00am - - - - - SE 19 24 10 13 - - -
27/07:30am - - - - - SE 17 24 9 13 - - -
27/07:00am - - - - - SE 17 22 9 12 - - -
27/06:30am - - - - - SE 19 24 10 13 - - -
27/06:00am - - - - - SE 15 19 8 10 - - -
27/05:30am - - - - - SE 15 20 8 11 - - -
27/05:00am - - - - - SE 15 20 8 11 - - -
27/04:30am - - - - - SE 17 20 9 11 - - -
27/04:00am - - - - - SE 13 17 7 9 - - -
27/03:30am - - - - - ESE 13 17 7 9 - - -
27/03:00am - - - - - SE 15 19 8 10 - - -
27/02:30am - - - - - SE 15 20 8 11 - - -
27/02:00am - - - - - SE 15 20 8 11 - - -
27/01:30am - - - - - SE 13 19 7 10 - - -
27/01:00am - - - - - SE 20 26 11 14 - - -
27/12:30am - - - - - SE 15 20 8 11 - - -
27/12:00am - - - - - SE 17 20 9 11 - - -
 
Date/Time
EDT
Tmp

°C
App
Tmp
°C
Dew
Point
°C
Rel
Hum
%
Delta-T

°C
Wind Press
QNH
hPa
Press
MSL
hPa
Rain
since
9 am
mm
Dir
 
Spd
km/h
Gust
km/h
Spd
kts
Gust
kts
26/11:30pm - - - - - SE 17 20 9 11 - - -
26/11:00pm - - - - - SE 19 26 10 14 - - -
26/10:30pm - - - - - SE 20 28 11 15 - - -
26/10:00pm - - - - - SE 20 28 11 15 - - -
26/09:30pm - - - - - SE 22 33 12 18 - - -
26/09:00pm - - - - - SE 22 30 12 16 - - -
26/08:30pm - - - - - SSE 32 41 17 22 - - -
26/08:00pm - - - - - SSE 33 41 18 22 - - -
26/07:30pm - - - - - SSE 37 44 20 24 - - -
26/07:00pm - - - - - SSE 35 44 19 24 - - -
26/06:30pm - - - - - S 37 44 20 24 - - -
26/06:00pm - - - - - S 37 46 20 25 - - -
26/05:30pm - - - - - S 37 44 20 24 - - -
26/05:00pm - - - - - S 39 46 21 25 - - -
26/04:30pm - - - - - S 37 46 20 25 - - -
26/04:00pm - - - - - S 37 44 20 24 - - -
26/03:30pm - - - - - S 35 43 19 23 - - -
26/03:00pm - - - - - S 35 43 19 23 - - -
26/02:30pm - - - - - S 32 39 17 21 - - -
26/02:00pm - - - - - S 28 37 15 20 - - -
26/01:30pm - - - - - S 24 32 13 17 - - -
26/01:00pm - - - - - S 26 37 14 20 - - -
26/12:30pm - - - - - S 24 32 13 17 - - -
26/12:14pm - - - - - S 24 32 13 17 - - -
26/12:00pm - - - - - SSW 6 13 3 7 - - -
26/11:30am - - - - - WSW 2 6 1 3 - - -
26/11:00am - - - - - NNE 4 6 2 3 - - -
26/10:30am - - - - - ENE 13 28 7 15 - - -
26/10:00am - - - - - NNW 9 15 5 8 - - -
26/09:30am - - - - - NW 9 15 5 8 - - -
26/09:00am - - - - - NNW 11 17 6 9 - - -
26/08:30am - - - - - NNE 7 17 4 9 - - -
26/08:00am - - - - - NW 17 22 9 12 - - -
26/07:30am - - - - - N 15 20 8 11 - - -
26/07:00am - - - - - NNE 9 11 5 6 - - -
26/06:30am - - - - - NNE 11 17 6 9 - - -
26/06:00am - - - - - ENE 6 11 3 6 - - -
26/05:30am - - - - - W 15 22 8 12 - - -
26/05:00am - - - - - W 28 33 15 18 - - -
26/04:30am - - - - - W 24 30 13 16 - - -
26/04:00am - - - - - W 28 32 15 17 - - -
26/03:30am - - - - - WSW 28 33 15 18 - - -
26/03:00am - - - - - W 26 32 14 17 - - -
26/02:30am - - - - - W 26 32 14 17 - - -
26/02:00am - - - - - W 28 33 15 18 - - -
26/01:30am - - - - - W 24 30 13 16 - - -
26/01:00am - - - - - WSW 32 37 17 20 - - -
26/12:30am - - - - - WSW 26 33 14 18 - - -
26/12:00am - - - - - WSW 30 35 16 19 - - -
 
Date/Time
EDT
Tmp

°C
App
Tmp
°C
Dew
Point
°C
Rel
Hum
%
Delta-T

°C
Wind Press
QNH
hPa
Press
MSL
hPa
Rain
since
9 am
mm
Dir
 
Spd
km/h
Gust
km/h
Spd
kts
Gust
kts
25/11:30pm - - - - - WSW 32 41 17 22 - - -
25/11:00pm - - - - - WSW 35 43 19 23 - - -
25/10:30pm - - - - - WSW 39 44 21 24 - - -
25/10:00pm - - - - - SW 32 39 17 21 - - -
25/09:30pm - - - - - WSW 35 43 19 23 - - -
25/09:00pm - - - - - WSW 35 43 19 23 - - -
25/08:34pm - - - - - SW 33 46 18 25 - - -
25/08:30pm - - - - - SSW 30 39 16 21 - - -
25/08:00pm - - - - - S 30 37 16 20 - - -
25/07:30pm - - - - - S 30 39 16 21 - - -
25/07:00pm - - - - - S 37 46 20 25 - - -
25/06:30pm - - - - - SSW 35 44 19 24 - - -
25/06:00pm - - - - - SW 43 50 23 27 - - -
25/05:30pm - - - - - SW 54 65 29 35 - - -
25/05:08pm - - - - - SW 46 70 25 38 - - -
25/05:00pm - - - - - SW 43 52 23 28 - - -
25/04:30pm - - - - - SW 41 48 22 26 - - -
25/04:00pm - - - - - SW 44 54 24 29 - - -
25/03:52pm - - - - - SW 46 56 25 30 - - -
25/03:30pm - - - - - WSW 39 50 21 27 - - -

Latest Capital City Observations: Canberra | Sydney | Melbourne | Brisbane | Adelaide | Perth | Hobart | Darwin

Other Formats:

Comma delimited format used in spreadsheet applications
http://www.bom.gov.au/fwo/IDV60901/IDV60901.95864.axf

JavaScript Object Notation format (JSON) in row-major order
http://www.bom.gov.au/fwo/IDV60901/IDV60901.95864.json